createdAt,value
2023-01-19T00:00:46.684Z,7.03
2023-01-19T00:03:16.068Z,6.35
2023-01-19T00:05:43.935Z,7.35
2023-01-19T00:08:17.473Z,7.45
2023-01-19T00:10:45.617Z,6.78
2023-01-19T00:13:12.802Z,8.00
2023-01-19T00:15:41.023Z,7.40
2023-01-19T00:18:09.835Z,7.28
2023-01-19T00:20:37.781Z,7.22
2023-01-19T00:23:04.949Z,7.38
2023-01-19T00:25:31.828Z,7.13
2023-01-19T00:28:00.612Z,7.65
2023-01-19T00:30:28.402Z,7.53
2023-01-19T00:32:55.120Z,7.10
2023-01-19T00:35:21.935Z,7.97
2023-01-19T00:37:50.337Z,7.35
2023-01-19T00:40:17.569Z,8.15
2023-01-19T00:42:44.657Z,8.23
2023-01-19T00:45:13.264Z,7.45
2023-01-19T00:47:40.159Z,7.50
2023-01-19T00:50:08.083Z,8.60
2023-01-19T00:52:34.877Z,7.97
2023-01-19T00:55:01.651Z,7.63
2023-01-19T00:57:31.466Z,7.00
2023-01-19T00:59:58.236Z,8.23
2023-01-19T01:02:25.235Z,7.35
2023-01-19T01:04:55.022Z,8.02
2023-01-19T01:07:22.610Z,7.90
2023-01-19T01:09:49.449Z,8.48
2023-01-19T01:12:16.292Z,8.40
2023-01-19T01:14:43.164Z,8.18
2023-01-19T01:17:11.499Z,8.75
2023-01-19T01:19:38.507Z,8.60
2023-01-19T01:22:05.369Z,7.65
2023-01-19T01:24:32.143Z,8.45
2023-01-19T01:26:58.997Z,8.30
2023-01-19T01:29:25.812Z,8.93
2023-01-19T01:31:52.767Z,7.88
2023-01-19T01:34:19.648Z,7.70
2023-01-19T01:36:46.456Z,7.40
2023-01-19T01:39:13.323Z,8.07
2023-01-19T01:41:40.215Z,7.95
2023-01-19T01:44:50.966Z,7.88
2023-01-19T01:47:35.288Z,7.90
2023-01-19T01:50:03.879Z,7.18
2023-01-19T01:52:31.327Z,8.15
2023-01-19T01:54:58.090Z,7.68
2023-01-19T01:57:27.844Z,7.80
2023-01-19T01:59:54.826Z,7.72
2023-01-19T02:02:46.639Z,8.40
2023-01-19T02:05:30.699Z,7.97
2023-01-19T02:08:22.636Z,7.72
2023-01-19T02:11:07.973Z,7.40
2023-01-19T02:13:37.329Z,7.50
2023-01-19T02:16:07.096Z,7.88
2023-01-19T02:18:33.897Z,8.38
2023-01-19T02:21:07.607Z,8.25
2023-01-19T02:23:47.129Z,7.35
2023-01-19T02:26:18.990Z,7.63
2023-01-19T02:28:49.080Z,8.35
2023-01-19T02:31:15.904Z,7.72
2023-01-19T02:33:42.631Z,7.30
2023-01-19T02:36:11.951Z,8.48
2023-01-19T02:38:38.676Z,7.25
2023-01-19T02:41:06.488Z,8.18
2023-01-19T02:43:33.454Z,7.60
2023-01-19T02:46:00.244Z,7.30
2023-01-19T02:48:27.017Z,8.00
2023-01-19T02:50:57.333Z,7.25
2023-01-19T02:53:33.078Z,6.57
2023-01-19T02:56:14.465Z,7.68
2023-01-19T02:59:17.472Z,6.68
2023-01-19T03:02:01.094Z,6.82
2023-01-19T03:04:40.325Z,7.78
2023-01-19T03:07:50.712Z,7.20
2023-01-19T03:10:22.480Z,8.20
2023-01-19T03:13:35.448Z,7.72
2023-01-19T03:16:23.223Z,7.13
2023-01-19T03:19:05.989Z,6.72
2023-01-19T03:21:34.098Z,7.10
2023-01-19T03:24:03.159Z,6.72
2023-01-19T03:26:31.456Z,6.38
2023-01-19T03:28:58.460Z,7.07
2023-01-19T03:31:26.153Z,6.35
2023-01-19T03:33:57.707Z,7.25
2023-01-19T03:36:36.385Z,7.10
2023-01-19T03:39:03.549Z,6.43
2023-01-19T03:41:30.485Z,7.30
2023-01-19T03:43:57.229Z,7.20
2023-01-19T03:46:24.016Z,6.30
2023-01-19T03:48:50.834Z,6.53
2023-01-19T03:51:20.374Z,7.18
2023-01-19T03:53:47.286Z,7.20
2023-01-19T03:56:22.014Z,6.80
2023-01-19T03:58:48.854Z,7.28
2023-01-19T04:01:16.090Z,7.18
2023-01-19T04:03:43.185Z,7.47
2023-01-19T04:06:10.280Z,7.28
2023-01-19T04:08:37.120Z,7.35
2023-01-19T04:11:03.935Z,7.95
2023-01-19T04:13:30.721Z,8.15
2023-01-19T04:16:01.589Z,8.60
2023-01-19T04:18:29.363Z,7.43
2023-01-19T04:20:59.529Z,7.80
2023-01-19T04:23:26.423Z,7.88
2023-01-19T04:25:58.481Z,8.00
2023-01-19T04:28:25.973Z,7.95
2023-01-19T04:30:53.028Z,7.90
2023-01-19T04:33:20.095Z,8.00
2023-01-19T04:35:47.323Z,7.13
2023-01-19T04:38:14.033Z,7.10
2023-01-19T04:40:40.738Z,7.30
2023-01-19T04:43:07.872Z,8.10
2023-01-19T04:45:34.580Z,7.63
2023-01-19T04:48:01.386Z,7.80
2023-01-19T04:50:28.089Z,9.23
2023-01-19T04:52:54.856Z,7.72
2023-01-19T04:55:21.615Z,8.57
2023-01-19T04:57:48.351Z,8.85
2023-01-19T05:00:15.577Z,8.85
2023-01-19T05:02:44.159Z,9.45
2023-01-19T05:05:11.789Z,9.23
2023-01-19T05:07:38.981Z,8.88
2023-01-19T05:10:06.714Z,9.45
2023-01-19T05:12:33.693Z,10.23
2023-01-19T05:15:01.596Z,8.77
2023-01-19T05:17:28.337Z,9.73
2023-01-19T05:19:55.083Z,10.52
2023-01-19T05:22:21.793Z,9.65
2023-01-19T05:24:48.595Z,9.93
2023-01-19T05:27:15.350Z,10.15
2023-01-19T05:29:42.095Z,9.95
2023-01-19T05:32:08.858Z,10.85
2023-01-19T05:34:36.415Z,9.95
2023-01-19T05:37:03.292Z,10.07
2023-01-19T05:39:30.876Z,11.07
2023-01-19T05:41:57.688Z,11.20
2023-01-19T05:44:24.470Z,10.63
2023-01-19T05:46:51.478Z,10.93
2023-01-19T05:49:18.278Z,10.40
2023-01-19T05:51:45.506Z,10.18
2023-01-19T05:54:15.310Z,10.35
2023-01-19T05:56:42.451Z,11.43
2023-01-19T05:59:09.613Z,11.32
2023-01-19T06:01:38.936Z,10.23
2023-01-19T06:04:06.687Z,10.63
2023-01-19T06:06:33.484Z,10.40
2023-01-19T06:09:00.266Z,10.45
2023-01-19T06:11:27.165Z,10.57
2023-01-19T06:13:54.128Z,11.50
2023-01-19T06:16:20.893Z,11.23
2023-01-19T06:18:47.709Z,10.02
2023-01-19T06:21:14.514Z,9.88
2023-01-19T06:23:41.350Z,9.57
2023-01-19T06:26:08.167Z,9.32
2023-01-19T06:28:35.227Z,10.13
2023-01-19T06:31:02.142Z,10.40
2023-01-19T06:33:29.106Z,10.48
2023-01-19T06:35:56.198Z,10.93
2023-01-19T06:38:22.940Z,9.68
2023-01-19T06:40:58.410Z,9.63
2023-01-19T06:43:25.841Z,8.95
2023-01-19T06:45:52.794Z,9.93
2023-01-19T06:48:19.741Z,8.98
2023-01-19T06:50:46.955Z,9.18
2023-01-19T06:53:14.537Z,9.93
2023-01-19T06:55:41.232Z,9.10
2023-01-19T06:58:08.789Z,9.55
2023-01-19T07:00:35.584Z,9.73
2023-01-19T07:03:02.749Z,9.70
2023-01-19T07:05:29.892Z,9.65
2023-01-19T07:07:56.920Z,10.52
2023-01-19T07:10:23.963Z,8.70
2023-01-19T07:12:50.829Z,9.75
2023-01-19T07:15:19.701Z,8.98
2023-01-19T07:17:46.547Z,9.85
2023-01-19T07:20:14.288Z,8.52
2023-01-19T07:22:41.855Z,8.30
2023-01-19T07:25:08.945Z,9.55
2023-01-19T07:27:35.655Z,9.02
2023-01-19T07:30:02.442Z,9.32
2023-01-19T07:32:29.212Z,10.02
2023-01-19T07:34:56.023Z,8.38
2023-01-19T07:37:22.775Z,7.72
2023-01-19T07:39:49.499Z,8.95
2023-01-19T07:42:16.228Z,7.90
2023-01-19T07:44:42.966Z,9.18
2023-01-19T07:47:12.567Z,8.15
2023-01-19T07:49:39.743Z,9.05
2023-01-19T07:52:06.553Z,9.55
2023-01-19T07:54:33.673Z,9.18
2023-01-19T07:57:03.348Z,9.05
2023-01-19T07:59:31.083Z,8.63
2023-01-19T08:01:59.546Z,9.52
2023-01-19T08:04:27.387Z,9.65
2023-01-19T08:06:54.338Z,9.93
2023-01-19T08:09:21.213Z,9.23
2023-01-19T08:11:48.028Z,8.88
2023-01-19T08:14:14.821Z,9.02
2023-01-19T08:16:41.579Z,10.20
2023-01-19T08:19:08.427Z,9.68
2023-01-19T08:21:36.459Z,9.95
2023-01-19T08:24:03.393Z,9.02
2023-01-19T08:26:31.695Z,9.13
2023-01-19T08:29:00.121Z,8.98
2023-01-19T08:31:26.969Z,9.93
2023-01-19T08:33:53.885Z,9.48
2023-01-19T08:36:21.331Z,10.05
2023-01-19T08:38:48.146Z,9.52
2023-01-19T08:41:16.503Z,8.55
2023-01-19T08:43:44.595Z,8.95
2023-01-19T08:46:11.782Z,8.63
2023-01-19T08:48:39.939Z,8.00
2023-01-19T08:51:06.877Z,8.57
2023-01-19T08:53:34.183Z,8.27
2023-01-19T08:56:02.265Z,8.60
2023-01-19T08:58:29.060Z,7.70
2023-01-19T09:00:56.069Z,8.73
2023-01-19T09:03:22.932Z,9.10
2023-01-19T09:05:50.390Z,7.45
2023-01-19T09:08:17.172Z,8.35
2023-01-19T09:10:50.861Z,8.45
2023-01-19T09:13:18.591Z,7.43
2023-01-19T09:15:45.459Z,7.50
2023-01-19T09:18:16.666Z,7.53
2023-01-19T09:20:44.319Z,7.78
2023-01-19T09:23:15.504Z,7.53
2023-01-19T09:25:43.965Z,7.15
2023-01-19T09:28:11.724Z,6.50
2023-01-19T09:30:39.564Z,5.70
2023-01-19T09:33:07.957Z,7.18
2023-01-19T09:35:34.883Z,7.00
2023-01-19T09:38:02.049Z,6.05
2023-01-19T09:40:29.573Z,6.35
2023-01-19T09:42:59.280Z,7.00
2023-01-19T09:45:37.406Z,6.55
2023-01-19T09:48:05.686Z,6.93
2023-01-19T09:50:36.524Z,7.03
2023-01-19T09:53:13.821Z,6.47
2023-01-19T09:55:41.402Z,7.10
2023-01-19T09:58:16.325Z,7.40
2023-01-19T10:00:44.692Z,7.35
2023-01-19T10:03:17.755Z,6.40
2023-01-19T10:08:37.864Z,6.25
2023-01-19T10:11:06.437Z,5.70
2023-01-19T10:13:41.124Z,6.68
2023-01-19T10:16:26.446Z,6.88
2023-01-19T10:18:54.306Z,7.22
2023-01-19T10:21:31.595Z,6.32
2023-01-19T10:24:12.981Z,6.85
2023-01-19T10:26:43.149Z,6.80
2023-01-19T10:29:42.403Z,7.45
2023-01-19T10:32:13.797Z,7.00
2023-01-19T10:34:41.651Z,8.18
2023-01-19T10:37:17.571Z,7.38
2023-01-19T10:39:52.175Z,6.65
2023-01-19T10:42:19.184Z,8.15
2023-01-19T10:44:46.088Z,7.72
2023-01-19T10:47:16.656Z,7.68
2023-01-19T10:49:44.068Z,7.82
2023-01-19T10:52:52.243Z,7.80
2023-01-19T10:55:32.014Z,7.57
2023-01-19T10:57:58.919Z,7.13
2023-01-19T11:00:37.676Z,7.03
2023-01-19T11:03:09.084Z,6.40
2023-01-19T11:05:35.878Z,6.35
2023-01-19T11:08:07.972Z,5.82
2023-01-19T11:10:34.871Z,5.70
2023-01-19T11:13:04.342Z,7.22
2023-01-19T11:15:54.814Z,5.53
2023-01-19T11:18:29.042Z,5.80
2023-01-19T11:20:57.048Z,4.93
2023-01-19T11:23:43.125Z,5.05
2023-01-19T11:26:15.811Z,4.85
2023-01-19T11:28:46.047Z,4.82
2023-01-19T11:31:16.032Z,4.78
2023-01-19T11:33:53.151Z,4.63
2023-01-19T11:36:24.620Z,3.92
2023-01-19T11:38:55.971Z,4.32
2023-01-19T11:41:27.247Z,4.78
2023-01-19T11:43:55.315Z,4.65
2023-01-19T11:46:24.021Z,4.68
2023-01-19T11:49:03.632Z,4.40
2023-01-19T11:51:59.548Z,4.70
2023-01-19T11:54:29.654Z,5.20
2023-01-19T11:56:58.564Z,4.85
2023-01-19T11:59:25.371Z,4.35
2023-01-19T12:01:54.851Z,4.00
2023-01-19T12:04:33.535Z,4.95
2023-01-19T12:07:05.054Z,3.58
2023-01-19T12:09:35.115Z,4.20
2023-01-19T12:12:04.234Z,3.90
2023-01-19T12:14:55.153Z,3.70
2023-01-19T12:17:31.410Z,3.60
2023-01-19T12:20:03.984Z,4.72
2023-01-19T12:22:30.738Z,3.58
2023-01-19T12:25:12.040Z,4.05
2023-01-19T12:27:43.467Z,4.50
2023-01-19T12:30:24.834Z,4.65
2023-01-19T12:32:51.664Z,4.90
2023-01-19T12:35:56.363Z,5.45
2023-01-19T12:38:55.698Z,5.20
2023-01-19T12:41:38.826Z,4.57
2023-01-19T12:44:16.099Z,5.25
2023-01-19T12:47:17.132Z,5.43
2023-01-19T12:49:49.697Z,5.55
2023-01-19T12:52:26.770Z,4.85
2023-01-19T12:55:00.903Z,5.50
2023-01-19T12:57:31.904Z,5.57
2023-01-19T13:00:22.705Z,4.95
2023-01-19T13:02:53.383Z,5.53
2023-01-19T13:05:33.292Z,6.35
2023-01-19T13:08:04.814Z,5.00
2023-01-19T13:10:53.655Z,6.47
2023-01-19T13:13:22.035Z,6.57
2023-01-19T13:15:48.959Z,8.02
2023-01-19T13:18:22.387Z,8.13
2023-01-19T13:21:08.204Z,8.48
2023-01-19T13:23:50.126Z,11.85
2023-01-19T13:26:24.052Z,12.70
2023-01-19T13:28:56.138Z,13.63
2023-01-19T13:31:23.187Z,13.43
2023-01-19T13:33:52.374Z,14.18
2023-01-19T13:36:31.567Z,14.27
2023-01-19T13:39:00.282Z,14.30
2023-01-19T13:41:29.375Z,13.73
2023-01-19T13:44:19.330Z,14.00
2023-01-19T13:46:46.299Z,14.05
2023-01-19T13:49:34.330Z,13.23
2023-01-19T13:52:30.280Z,13.10
2023-01-19T13:55:02.344Z,13.73
2023-01-19T13:57:40.619Z,14.02
2023-01-19T14:00:19.373Z,12.63
2023-01-19T14:03:09.062Z,12.93
2023-01-19T14:05:42.781Z,12.93
2023-01-19T14:08:12.861Z,12.52
2023-01-19T14:10:47.922Z,12.55
2023-01-19T14:13:17.704Z,12.68
2023-01-19T14:15:44.625Z,11.27
2023-01-19T14:18:35.318Z,11.55
2023-01-19T14:21:07.807Z,12.20
2023-01-19T14:23:47.745Z,11.50
2023-01-19T14:26:52.842Z,10.73
2023-01-19T14:29:33.158Z,11.35
2023-01-19T14:32:21.996Z,11.63
2023-01-19T14:34:53.723Z,12.77
2023-01-19T14:37:27.023Z,11.43
2023-01-19T14:40:05.668Z,12.43
2023-01-19T14:42:34.601Z,14.68
2023-01-19T14:45:02.722Z,12.95
2023-01-19T14:47:37.993Z,14.60
2023-01-19T14:50:18.956Z,14.10
2023-01-19T14:53:09.499Z,14.60
2023-01-19T14:56:08.791Z,13.75
2023-01-19T14:58:35.670Z,14.60
2023-01-19T15:01:02.689Z,15.52
2023-01-19T15:03:44.014Z,15.38
2023-01-19T15:06:19.994Z,14.88
2023-01-19T15:08:46.956Z,16.30
2023-01-19T15:11:16.775Z,15.20
2023-01-19T15:13:44.017Z,16.92
2023-01-19T15:16:10.807Z,15.27
2023-01-19T15:18:47.829Z,16.38
2023-01-19T15:21:15.296Z,15.13
2023-01-19T15:23:42.084Z,16.02
2023-01-19T15:26:10.607Z,15.35
2023-01-19T15:28:37.326Z,15.95
2023-01-19T15:31:04.266Z,16.67
2023-01-19T15:33:31.097Z,16.63
2023-01-19T15:35:57.928Z,16.48
2023-01-19T15:38:24.800Z,15.50
2023-01-19T15:40:51.803Z,16.10
2023-01-19T15:43:18.631Z,14.07
2023-01-19T15:45:51.260Z,14.77
2023-01-19T15:48:19.950Z,15.10
2023-01-19T15:50:47.825Z,14.68
2023-01-19T15:53:16.313Z,14.52
2023-01-19T15:55:43.363Z,15.20
2023-01-19T15:58:13.881Z,14.68
2023-01-19T16:00:40.923Z,15.02
2023-01-19T16:03:07.713Z,14.68
2023-01-19T16:05:43.979Z,15.13
2023-01-19T16:08:11.603Z,14.75
2023-01-19T16:10:38.658Z,14.82
2023-01-19T16:13:05.472Z,15.48
2023-01-19T16:15:34.822Z,15.30
2023-01-19T16:18:06.802Z,15.48
2023-01-19T16:20:37.632Z,13.48
2023-01-19T16:23:19.608Z,14.88
2023-01-19T16:25:55.306Z,14.35
2023-01-19T16:28:27.171Z,14.70
2023-01-19T16:30:54.223Z,14.18
2023-01-19T16:33:21.095Z,14.73
2023-01-19T16:35:47.950Z,14.60
2023-01-19T16:38:14.709Z,14.43
2023-01-19T16:40:47.846Z,14.77
2023-01-19T16:43:15.252Z,13.82
2023-01-19T16:45:59.529Z,12.80
2023-01-19T16:48:26.548Z,13.75
2023-01-19T16:51:03.810Z,14.25
2023-01-19T16:53:30.945Z,13.38
2023-01-19T16:55:57.921Z,13.75
2023-01-19T16:58:24.739Z,14.80
2023-01-19T17:00:51.598Z,14.45
2023-01-19T17:03:18.448Z,14.52
2023-01-19T17:05:50.087Z,13.98
2023-01-19T17:08:20.409Z,15.23
2023-01-19T17:10:47.722Z,14.30
2023-01-19T17:13:14.509Z,13.43
2023-01-19T17:15:41.337Z,13.38
2023-01-19T17:18:10.080Z,13.90
2023-01-19T17:20:36.923Z,13.52
2023-01-19T17:23:03.649Z,13.63
2023-01-19T17:25:30.417Z,14.30
2023-01-19T17:28:00.053Z,14.00
2023-01-19T17:30:27.032Z,14.43
2023-01-19T17:32:53.857Z,13.88
2023-01-19T17:35:20.659Z,13.20
2023-01-19T17:37:47.415Z,13.75
2023-01-19T17:40:14.468Z,14.07
2023-01-19T17:42:41.925Z,13.93
2023-01-19T17:45:10.834Z,15.25
2023-01-19T17:47:38.482Z,13.23
2023-01-19T17:50:05.620Z,15.27
2023-01-19T17:52:32.419Z,14.48
2023-01-19T17:54:59.218Z,13.13
2023-01-19T17:57:25.966Z,15.23
2023-01-19T17:59:52.805Z,14.77
2023-01-19T18:02:24.398Z,15.40
2023-01-19T18:04:54.228Z,14.82
2023-01-19T18:07:20.975Z,14.88
2023-01-19T18:09:47.828Z,13.82
2023-01-19T18:12:15.928Z,13.90
2023-01-19T18:14:42.769Z,14.27
2023-01-19T18:17:09.609Z,15.07
2023-01-19T18:19:36.432Z,14.18
2023-01-19T18:22:03.212Z,13.75
2023-01-19T18:24:29.972Z,14.98
2023-01-19T18:26:56.862Z,14.18
2023-01-19T18:29:23.621Z,13.07
2023-01-19T18:31:50.428Z,14.07
2023-01-19T18:34:17.187Z,15.43
2023-01-19T18:36:44.651Z,14.73
2023-01-19T18:39:11.454Z,13.75
2023-01-19T18:41:41.750Z,14.00
2023-01-19T18:44:09.510Z,13.70
2023-01-19T18:46:36.984Z,12.93
2023-01-19T18:49:04.351Z,13.88
2023-01-19T18:51:31.268Z,13.77
2023-01-19T18:53:58.585Z,13.43
2023-01-19T18:56:25.411Z,14.68
2023-01-19T18:58:55.228Z,13.50
2023-01-19T19:01:32.612Z,14.95
2023-01-19T19:03:59.756Z,14.18
2023-01-19T19:06:27.161Z,14.55
2023-01-19T19:08:55.184Z,14.25
2023-01-19T19:11:22.796Z,13.10
2023-01-19T19:13:54.097Z,13.63
2023-01-19T19:16:21.257Z,14.65
2023-01-19T19:18:50.753Z,14.50
2023-01-19T19:21:18.051Z,13.00
2023-01-19T19:23:49.119Z,14.63
2023-01-19T19:26:15.863Z,14.68
2023-01-19T19:28:42.660Z,14.77
2023-01-19T19:31:11.403Z,16.05
2023-01-19T19:33:38.473Z,13.88
2023-01-19T19:36:05.991Z,13.65
2023-01-19T19:38:32.972Z,14.00
2023-01-19T19:41:00.493Z,12.95
2023-01-19T19:43:27.512Z,14.43
2023-01-19T19:46:04.889Z,14.50
2023-01-19T19:48:31.987Z,14.00
2023-01-19T19:51:18.993Z,12.93
2023-01-19T19:53:47.041Z,15.32
2023-01-19T19:56:14.250Z,14.65
2023-01-19T19:58:42.007Z,14.73
2023-01-19T20:01:13.340Z,15.57
2023-01-19T20:03:40.232Z,14.68
2023-01-19T20:06:11.836Z,13.80
2023-01-19T20:08:38.619Z,15.15
2023-01-19T20:11:06.352Z,14.40
2023-01-19T20:13:34.706Z,14.32
2023-01-19T20:16:03.402Z,15.50
2023-01-19T20:18:30.691Z,14.48
2023-01-19T20:21:00.706Z,15.35
2023-01-19T20:23:27.481Z,13.70
2023-01-19T20:25:54.313Z,13.43
2023-01-19T20:28:26.898Z,15.10
2023-01-19T20:30:54.712Z,13.82
2023-01-19T20:33:21.527Z,14.63
2023-01-19T20:35:48.276Z,14.98
2023-01-19T20:38:15.107Z,14.63
2023-01-19T20:40:56.997Z,14.40
2023-01-19T20:46:41.175Z,13.77
2023-01-19T20:49:13.692Z,14.32
2023-01-19T20:52:12.056Z,14.23
2023-01-19T20:55:27.425Z,14.10
2023-01-19T20:58:01.589Z,14.50
2023-01-19T21:00:41.024Z,14.57
2023-01-19T21:09:40.840Z,12.35
2023-01-19T21:12:30.272Z,14.43
2023-01-19T21:15:44.773Z,13.30
2023-01-19T21:18:19.045Z,13.90
2023-01-19T21:20:48.209Z,13.88
2023-01-19T21:23:15.363Z,14.60
2023-01-19T21:25:55.105Z,14.32
2023-01-19T21:28:22.967Z,13.77
2023-01-19T21:30:50.754Z,13.63
2023-01-19T21:33:17.910Z,14.93
2023-01-19T21:35:52.704Z,13.38
2023-01-19T21:38:19.679Z,13.40
2023-01-19T21:40:46.781Z,13.23
2023-01-19T21:43:13.918Z,13.93
2023-01-19T21:45:43.006Z,14.18
2023-01-19T21:48:10.089Z,13.65
2023-01-19T21:50:36.843Z,13.85
2023-01-19T21:53:05.911Z,13.13
2023-01-19T21:55:33.241Z,13.27
2023-01-19T21:58:00.113Z,13.40
2023-01-19T22:00:29.446Z,12.50
2023-01-19T22:03:04.232Z,13.30
2023-01-19T22:05:36.622Z,13.05
2023-01-19T22:08:04.319Z,12.07
2023-01-19T22:10:31.241Z,12.05
2023-01-19T22:12:57.997Z,11.70
2023-01-19T22:15:24.855Z,12.88
2023-01-19T22:17:51.631Z,12.40
2023-01-19T22:20:18.453Z,12.00
2023-01-19T22:22:45.187Z,11.93
2023-01-19T22:25:12.344Z,11.98
2023-01-19T22:27:39.365Z,10.98
2023-01-19T22:30:06.748Z,11.70
2023-01-19T22:32:33.508Z,12.18
2023-01-19T22:35:00.306Z,12.77
2023-01-19T22:37:27.089Z,10.77
2023-01-19T22:39:53.811Z,10.30
2023-01-19T22:42:20.565Z,10.60
2023-01-19T22:44:47.450Z,11.25
2023-01-19T22:47:14.226Z,11.45
2023-01-19T22:49:41.022Z,10.05
2023-01-19T22:52:07.932Z,9.88
2023-01-19T22:54:34.762Z,9.32
2023-01-19T22:57:01.588Z,10.18
2023-01-19T22:59:28.454Z,9.82
2023-01-19T23:01:55.610Z,11.00
2023-01-19T23:04:22.454Z,11.00
2023-01-19T23:06:50.646Z,10.48
2023-01-19T23:09:17.613Z,10.15
2023-01-19T23:11:48.470Z,10.93
2023-01-19T23:14:16.312Z,10.90
2023-01-19T23:16:43.178Z,10.18
2023-01-19T23:19:10.782Z,10.60
2023-01-19T23:21:37.501Z,9.18
2023-01-19T23:24:04.525Z,10.10
2023-01-19T23:26:31.627Z,9.88
2023-01-19T23:29:00.255Z,9.95
2023-01-19T23:31:28.864Z,9.30
2023-01-19T23:34:01.830Z,8.70
2023-01-19T23:39:01.226Z,9.73
2023-01-19T23:41:28.895Z,8.85
2023-01-19T23:43:55.593Z,8.68
2023-01-19T23:46:22.532Z,9.25
2023-01-19T23:48:49.540Z,10.73
2023-01-19T23:51:18.671Z,7.93
2023-01-19T23:53:45.565Z,9.52
2023-01-19T23:56:17.917Z,10.20
2023-01-19T23:58:45.716Z,8.90
